Aérodrome :
LOGIN :

S'inscrire | Disclaimer

   EN    FR    IT 

 










Légende :    VFR   VFR Marginal   IFR   IFR Intensif   IFR Très Intensif
Visi : 
Plafond : 
>= 8 km
>= 3000ft
5 à 8 km
1000 à 3000 ft
1500m à 5 km
500 à 1000 ft
800 à 1500m
200 à 500 ft
< 800m
< 200 ft
Symboles :   Orages  Brouillard  Fortes neiges  Fortes précipitations  Vent > 20 kt
SIGMETs :   Divers  Orages  Givrage  Turbulence  Onde Orograph.  Cendres Volcan.







- Altitude de l'aérodrome : 598 ft
- Code IATA : BQH
- Voir les cartes d'approche


EGKB - Biggin Hill

DERNIER METAR :
  • 151520Z 04004KT 340V080 0300 R21/0550 FG VV/// 14/14 Q1012

METARs EXPIRÉS :
  • 151450Z 05004KT 360V080 0250 R21/0300 FG VV/// 14/14 Q1012
  • 151420Z 06004KT 0200 R21/0200 FG VV/// 13/13 Q1012
  • 151350Z 03005KT 350V060 0200 R21/0200 -DZ FG VV/// 13/13 Q1011
  • 151320Z 02005KT 0200 R21/0250 -DZ FG VV/// 13/13 Q1011
  • 151250Z 05005KT 350V080 0300 R21/0550 FG VV/// 13/13 Q1011

TAF AMD TAF EGKB
Valide du 15 à 14h jusqu'au 15 à 21h UTC


151402Z 1514/1521 05004KT 0300 -DZ FG BKN001
PROB40 1514/1520 9999 NSW SCT008
Pas de NOTAMs connus pour ce terrain.
1 SIGMET publié pour la FIR London (EGTT) :
 
Turbulence forte
EGTT SIGMET 04 VALID 151149/151530 EGRR
EGTT LONDON FIR SEV TURB FCST W OF LINE N5500 W00332 - N4957 W00215 FL240/350 MOV E 20KT WKN=



MET'MAP, la Météo Aéronautique d'un coup d'oeil ! - Copyright ORBIFLY Décembre 2007 - Disclaimer

ORBIFLY MET'MAP TEAM :

Programmation & Développement : Alexandra Zaïnal
Conception & Développement : Baudouin d'Aumeries
Co-Programmation & Développement : Marc-Olivier Méhu
Soutien technique & logistique : Manuel Goepfert

Contact : metmap@orbifly.com




SOURCES & CREDITS :

   NOAA